createdAt,value
2023-04-16T00:01:34.929Z,99.99
2023-04-16T00:04:01.794Z,99.99
2023-04-16T00:06:28.710Z,99.99
2023-04-16T00:08:55.305Z,99.99
2023-04-16T00:11:22.391Z,99.99
2023-04-16T00:13:49.129Z,99.99
2023-04-16T00:16:16.005Z,99.99
2023-04-16T00:18:42.750Z,99.99
2023-04-16T00:21:09.302Z,99.99
2023-04-16T00:23:35.906Z,99.99
2023-04-16T00:26:02.523Z,99.99
2023-04-16T00:28:29.439Z,99.99
2023-04-16T00:30:56.073Z,99.99
2023-04-16T00:33:24.356Z,99.99
2023-04-16T00:35:51.322Z,99.99
2023-04-16T00:38:18.076Z,99.99
2023-04-16T00:40:44.618Z,99.99
2023-04-16T00:43:11.201Z,99.70
2023-04-16T00:45:38.063Z,99.91
2023-04-16T00:48:05.839Z,99.97
2023-04-16T00:50:33.288Z,99.99
2023-04-16T00:53:01.280Z,99.94
2023-04-16T00:55:27.962Z,99.95
2023-04-16T00:57:54.530Z,99.99
2023-04-16T01:00:21.629Z,99.99
2023-04-16T01:02:48.489Z,99.99
2023-04-16T01:05:15.388Z,99.99
2023-04-16T01:07:41.896Z,99.99
2023-04-16T01:10:08.814Z,99.80
2023-04-16T01:12:35.461Z,99.78
2023-04-16T01:15:02.351Z,99.86
2023-04-16T01:17:28.945Z,99.71
2023-04-16T01:19:59.492Z,99.80
2023-04-16T01:22:27.672Z,99.92
2023-04-16T01:24:54.161Z,99.98
2023-04-16T01:27:20.829Z,99.80
2023-04-16T01:29:47.586Z,99.23
2023-04-16T01:32:14.130Z,99.26
2023-04-16T01:34:40.760Z,99.49
2023-04-16T01:37:07.509Z,99.53
2023-04-16T01:39:34.218Z,99.63
2023-04-16T01:42:01.306Z,99.60
2023-04-16T01:44:28.183Z,99.71
2023-04-16T01:46:54.887Z,99.74
2023-04-16T01:49:22.350Z,99.71
2023-04-16T01:51:48.940Z,99.66
2023-04-16T01:54:15.611Z,99.65
2023-04-16T01:56:42.212Z,99.56
2023-04-16T01:59:08.958Z,99.49
2023-04-16T02:01:35.880Z,99.62
2023-04-16T02:04:02.488Z,99.53
2023-04-16T02:06:29.022Z,99.59
2023-04-16T02:08:55.526Z,99.45
2023-04-16T02:11:22.003Z,99.51
2023-04-16T02:13:48.490Z,99.52
2023-04-16T02:16:14.973Z,99.20
2023-04-16T02:18:41.696Z,99.42
2023-04-16T02:21:08.411Z,99.22
2023-04-16T02:23:34.979Z,99.20
2023-04-16T02:26:03.527Z,99.09
2023-04-16T02:28:30.061Z,99.18
2023-04-16T02:30:56.938Z,99.31
2023-04-16T02:33:26.210Z,99.36
2023-04-16T02:35:53.169Z,99.38
2023-04-16T02:38:19.860Z,99.02
2023-04-16T02:40:46.419Z,99.13
2023-04-16T02:43:13.025Z,99.05
2023-04-16T02:45:39.576Z,99.13
2023-04-16T02:48:08.677Z,98.85
2023-04-16T02:50:35.289Z,99.10
2023-04-16T02:53:01.811Z,99.11
2023-04-16T02:55:29.377Z,99.36
2023-04-16T02:57:56.499Z,99.11
2023-04-16T03:00:23.212Z,99.24
2023-04-16T03:02:49.972Z,99.27
2023-04-16T03:05:16.645Z,99.27
2023-04-16T03:07:43.418Z,99.19
2023-04-16T03:10:11.796Z,99.27
2023-04-16T03:12:39.472Z,99.42
2023-04-16T03:15:06.553Z,99.38
2023-04-16T03:17:33.146Z,99.16
2023-04-16T03:19:59.770Z,99.49
2023-04-16T03:22:26.971Z,99.58
2023-04-16T03:24:53.679Z,99.31
2023-04-16T03:27:20.246Z,99.52
2023-04-16T03:29:46.871Z,99.23
2023-04-16T03:32:13.586Z,99.38
2023-04-16T03:34:40.358Z,99.49
2023-04-16T03:37:06.917Z,99.30
2023-04-16T03:39:34.462Z,99.48
2023-04-16T03:42:02.095Z,99.69
2023-04-16T03:44:29.378Z,99.80
2023-04-16T03:46:56.048Z,99.87
2023-04-16T03:49:22.808Z,99.95
2023-04-16T03:51:49.530Z,99.84
2023-04-16T03:54:16.145Z,99.77
2023-04-16T03:56:43.075Z,99.84
2023-04-16T03:59:10.137Z,99.66
2023-04-16T04:01:36.781Z,99.63
2023-04-16T04:04:03.484Z,99.63
2023-04-16T04:06:30.138Z,99.31
2023-04-16T04:08:56.677Z,99.69
2023-04-16T04:11:23.170Z,99.74
2023-04-16T04:13:49.704Z,99.89
2023-04-16T04:16:16.392Z,99.89
2023-04-16T04:18:44.479Z,99.84
2023-04-16T04:21:11.478Z,99.84
2023-04-16T04:23:38.097Z,99.60
2023-04-16T04:26:05.659Z,99.79
2023-04-16T04:28:32.953Z,99.87
2023-04-16T04:31:00.049Z,99.84
2023-04-16T04:33:28.292Z,99.85
2023-04-16T04:35:55.653Z,99.83
2023-04-16T04:38:25.131Z,99.80
2023-04-16T04:40:52.891Z,99.74
2023-04-16T04:43:20.639Z,99.79
2023-04-16T04:45:49.027Z,99.71
2023-04-16T04:48:16.116Z,99.76
2023-04-16T04:50:43.109Z,99.84
2023-04-16T04:53:14.691Z,99.87
2023-04-16T04:55:41.506Z,99.86
2023-04-16T04:58:08.627Z,99.81
2023-04-16T05:00:36.311Z,99.80
2023-04-16T05:03:04.442Z,99.50
2023-04-16T05:05:31.078Z,99.56
2023-04-16T05:07:57.673Z,99.71
2023-04-16T05:10:24.317Z,99.83
2023-04-16T05:12:50.975Z,99.58
2023-04-16T05:15:17.598Z,99.34
2023-04-16T05:17:44.268Z,99.33
2023-04-16T05:20:11.492Z,99.51
2023-04-16T05:22:38.101Z,99.61
2023-04-16T05:25:05.385Z,99.57
2023-04-16T05:27:32.160Z,99.56
2023-04-16T05:29:58.744Z,99.41
2023-04-16T05:32:26.260Z,99.05
2023-04-16T05:34:53.152Z,98.86
2023-04-16T05:37:19.700Z,99.11
2023-04-16T05:39:46.306Z,98.74
2023-04-16T05:42:12.889Z,99.02
2023-04-16T05:44:40.546Z,99.05
2023-04-16T05:47:09.232Z,99.18
2023-04-16T05:49:39.314Z,98.92
2023-04-16T05:52:07.332Z,99.11
2023-04-16T05:54:34.049Z,99.22
2023-04-16T05:57:01.550Z,98.91
2023-04-16T05:59:29.177Z,98.78
2023-04-16T06:01:55.728Z,98.82
2023-04-16T06:04:22.403Z,98.81
2023-04-16T06:06:49.002Z,99.06
2023-04-16T06:09:15.641Z,99.18
2023-04-16T06:11:42.253Z,99.19
2023-04-16T06:14:08.850Z,99.23
2023-04-16T06:16:35.421Z,99.26
2023-04-16T06:19:01.973Z,98.74
2023-04-16T06:21:28.864Z,99.09
2023-04-16T06:23:56.173Z,99.13
2023-04-16T06:26:22.799Z,98.72
2023-04-16T06:28:49.897Z,99.00
2023-04-16T06:31:16.471Z,98.94
2023-04-16T06:33:43.339Z,98.72
2023-04-16T06:36:11.307Z,98.80
2023-04-16T06:38:38.119Z,98.86
2023-04-16T06:41:05.503Z,99.00
2023-04-16T06:43:33.540Z,98.85
2023-04-16T06:46:00.491Z,98.76
2023-04-16T06:48:27.398Z,98.86
2023-04-16T06:50:55.128Z,99.16
2023-04-16T06:53:21.834Z,99.11
2023-04-16T06:55:48.373Z,98.95
2023-04-16T06:58:14.990Z,99.15
2023-04-16T07:00:41.643Z,98.96
2023-04-16T07:03:08.352Z,98.55
2023-04-16T07:05:34.952Z,98.51
2023-04-16T07:08:01.768Z,98.65
2023-04-16T07:10:28.347Z,98.82
2023-04-16T07:12:54.944Z,99.00
2023-04-16T07:15:21.735Z,98.41
2023-04-16T07:17:48.323Z,98.57
2023-04-16T07:20:14.941Z,98.39
2023-04-16T07:22:41.526Z,98.06
2023-04-16T07:25:08.570Z,98.20
2023-04-16T07:27:35.255Z,98.01
2023-04-16T07:30:01.749Z,97.92
2023-04-16T07:32:28.467Z,98.22
2023-04-16T07:34:55.863Z,97.93
2023-04-16T07:37:22.722Z,97.69
2023-04-16T07:39:49.197Z,98.08
2023-04-16T07:42:15.831Z,98.11
2023-04-16T07:44:42.627Z,98.20
2023-04-16T07:47:09.202Z,98.30
2023-04-16T07:49:35.805Z,98.38
2023-04-16T07:52:02.409Z,98.48
2023-04-16T07:54:29.251Z,98.25
2023-04-16T07:56:56.127Z,98.26
2023-04-16T07:59:24.265Z,98.52
2023-04-16T08:01:53.964Z,98.64
2023-04-16T08:04:25.070Z,98.53
2023-04-16T08:06:52.635Z,98.58
2023-04-16T08:09:20.857Z,98.60
2023-04-16T08:11:49.183Z,98.52
2023-04-16T08:14:20.253Z,98.41
2023-04-16T08:16:49.759Z,98.33
2023-04-16T08:19:17.192Z,98.19
2023-04-16T08:21:44.159Z,97.95
2023-04-16T08:24:11.028Z,98.12
2023-04-16T08:26:37.806Z,97.52
2023-04-16T08:29:05.484Z,97.12
2023-04-16T08:31:34.641Z,97.08
2023-04-16T08:34:02.088Z,96.53
2023-04-16T08:36:28.877Z,96.80
2023-04-16T08:38:55.561Z,96.60
2023-04-16T08:41:23.978Z,96.68
2023-04-16T08:43:52.674Z,96.87
2023-04-16T08:46:24.763Z,97.09
2023-04-16T08:48:55.324Z,97.03
2023-04-16T08:51:24.062Z,96.76
2023-04-16T08:53:59.264Z,96.28
2023-04-16T08:56:26.502Z,96.18
2023-04-16T08:58:54.896Z,95.45
2023-04-16T09:01:21.980Z,95.74
2023-04-16T09:03:49.115Z,96.25
2023-04-16T09:06:16.957Z,96.20
2023-04-16T09:08:48.861Z,95.95
2023-04-16T09:11:18.064Z,96.07
2023-04-16T09:13:46.579Z,95.65
2023-04-16T09:16:14.425Z,96.02
2023-04-16T09:18:41.432Z,95.98
2023-04-16T09:21:10.958Z,96.21
2023-04-16T09:23:38.672Z,96.74
2023-04-16T09:26:06.091Z,96.47
2023-04-16T09:28:46.648Z,96.40
2023-04-16T09:31:15.658Z,96.55
2023-04-16T09:33:43.459Z,95.82
2023-04-16T09:36:11.489Z,95.96
2023-04-16T09:38:52.110Z,95.92
2023-04-16T09:41:19.909Z,96.04
2023-04-16T09:44:00.771Z,96.50
2023-04-16T09:46:32.027Z,96.02
2023-04-16T09:48:58.867Z,95.26
2023-04-16T09:51:26.919Z,93.75
2023-04-16T09:53:56.562Z,93.22
2023-04-16T09:56:26.249Z,93.34
2023-04-16T09:59:00.554Z,92.88
2023-04-16T10:01:27.164Z,93.02
2023-04-16T10:03:56.069Z,92.10
2023-04-16T10:06:23.947Z,91.04
2023-04-16T10:08:52.831Z,91.37
2023-04-16T10:11:20.515Z,89.76
2023-04-16T10:13:47.291Z,91.31
2023-04-16T10:16:14.124Z,90.30
2023-04-16T10:18:42.621Z,90.35
2023-04-16T10:21:12.649Z,90.51
2023-04-16T10:23:40.283Z,91.13
2023-04-16T10:26:06.989Z,91.46
2023-04-16T10:28:35.354Z,90.86
2023-04-16T10:31:04.946Z,89.84
2023-04-16T10:33:33.497Z,90.84
2023-04-16T10:36:13.307Z,90.14
2023-04-16T10:38:51.047Z,90.82
2023-04-16T10:41:20.595Z,92.07
2023-04-16T10:43:48.534Z,92.15
2023-04-16T10:46:31.170Z,92.23
2023-04-16T10:49:02.324Z,92.12
2023-04-16T10:51:36.312Z,91.37
2023-04-16T10:54:08.944Z,91.43
2023-04-16T10:56:37.316Z,91.95
2023-04-16T10:59:10.506Z,91.83
2023-04-16T11:01:38.338Z,91.81
2023-04-16T11:04:20.110Z,92.15
2023-04-16T11:07:11.755Z,92.24
2023-04-16T11:09:54.454Z,92.32
2023-04-16T11:12:27.585Z,91.90
2023-04-16T11:14:59.475Z,91.79
2023-04-16T11:17:30.774Z,92.44
2023-04-16T11:19:57.375Z,92.47
2023-04-16T11:22:24.405Z,92.49
2023-04-16T11:24:57.338Z,92.74
2023-04-16T11:27:24.479Z,92.40
2023-04-16T11:30:01.992Z,92.67
2023-04-16T11:32:32.081Z,92.21
2023-04-16T11:34:59.850Z,92.88
2023-04-16T11:37:37.648Z,92.80
2023-04-16T11:40:09.598Z,92.91
2023-04-16T11:42:37.475Z,92.59
2023-04-16T11:45:04.843Z,92.07
2023-04-16T11:47:31.896Z,92.06
2023-04-16T11:50:14.931Z,91.83
2023-04-16T11:52:41.532Z,92.00
2023-04-16T11:55:08.400Z,92.32
2023-04-16T11:57:34.922Z,93.02
2023-04-16T12:00:03.952Z,93.20
2023-04-16T12:02:42.330Z,93.50
2023-04-16T12:05:35.049Z,92.72
2023-04-16T12:08:03.683Z,92.07
2023-04-16T12:10:32.512Z,92.34
2023-04-16T12:13:12.660Z,92.27
2023-04-16T12:15:49.451Z,92.06
2023-04-16T12:18:17.175Z,92.44
2023-04-16T12:20:44.947Z,93.07
2023-04-16T12:23:28.825Z,93.19
2023-04-16T12:25:56.077Z,93.59
2023-04-16T12:28:28.766Z,93.61
2023-04-16T12:30:55.455Z,93.39
2023-04-16T12:33:22.020Z,93.91
2023-04-16T12:35:48.624Z,93.67
2023-04-16T12:38:15.472Z,93.77
2023-04-16T12:40:42.245Z,93.20
2023-04-16T12:43:09.744Z,93.25
2023-04-16T12:45:36.945Z,93.02
2023-04-16T12:48:03.643Z,93.25
2023-04-16T12:50:30.256Z,92.51
2023-04-16T12:52:57.844Z,92.02
2023-04-16T12:55:24.891Z,91.89
2023-04-16T12:57:52.945Z,91.99
2023-04-16T13:00:19.979Z,91.33
2023-04-16T13:02:47.502Z,90.39
2023-04-16T13:05:19.103Z,90.43
2023-04-16T13:07:46.034Z,89.84
2023-04-16T13:10:12.921Z,87.85
2023-04-16T13:12:39.506Z,88.13
2023-04-16T13:15:06.649Z,87.72
2023-04-16T13:17:33.229Z,88.24
2023-04-16T13:19:59.809Z,87.93
2023-04-16T13:22:26.451Z,86.82
2023-04-16T13:24:53.092Z,87.94
2023-04-16T13:27:20.256Z,88.09
2023-04-16T13:29:47.105Z,88.49
2023-04-16T13:32:14.642Z,88.69
2023-04-16T13:34:41.260Z,88.57
2023-04-16T13:37:07.845Z,89.40
2023-04-16T13:39:34.428Z,89.91
2023-04-16T13:42:00.982Z,90.12
2023-04-16T13:44:27.546Z,89.28
2023-04-16T13:46:54.212Z,89.36
2023-04-16T13:49:21.072Z,88.88
2023-04-16T13:51:47.597Z,89.20
2023-04-16T13:54:14.162Z,88.78
2023-04-16T13:56:41.480Z,89.31
2023-04-16T13:59:08.301Z,89.63
2023-04-16T14:01:35.008Z,89.57
2023-04-16T14:04:06.108Z,88.55
2023-04-16T14:06:34.139Z,89.09
2023-04-16T14:09:01.188Z,89.33
2023-04-16T14:11:28.005Z,89.58
2023-04-16T14:13:54.974Z,88.66
2023-04-16T14:16:22.202Z,88.72
2023-04-16T14:18:48.695Z,88.99
2023-04-16T14:21:15.598Z,88.56
2023-04-16T14:23:42.180Z,89.07
2023-04-16T14:26:08.758Z,89.01
2023-04-16T14:28:35.750Z,88.91
2023-04-16T14:31:02.290Z,88.96
2023-04-16T14:33:29.051Z,89.34
2023-04-16T14:35:55.786Z,89.56
2023-04-16T14:38:22.802Z,89.72
2023-04-16T14:40:49.560Z,89.57
2023-04-16T14:43:16.198Z,89.67
2023-04-16T14:45:42.871Z,89.38
2023-04-16T14:48:09.513Z,88.78
2023-04-16T14:50:37.910Z,89.20
2023-04-16T14:53:05.183Z,88.94
2023-04-16T14:55:32.262Z,89.13
2023-04-16T14:57:59.956Z,89.21
2023-04-16T15:00:27.528Z,88.85
2023-04-16T15:02:55.341Z,89.24
2023-04-16T15:05:22.590Z,89.28
2023-04-16T15:07:49.451Z,89.00
2023-04-16T15:10:16.534Z,89.10
2023-04-16T15:12:44.271Z,89.25
2023-04-16T15:15:11.392Z,89.86
2023-04-16T15:17:38.288Z,90.02
2023-04-16T15:20:08.791Z,89.52
2023-04-16T15:22:36.488Z,89.53
2023-04-16T15:25:04.170Z,89.10
2023-04-16T15:27:31.295Z,89.44
2023-04-16T15:29:58.311Z,89.29
2023-04-16T15:32:25.658Z,88.76
2023-04-16T15:34:52.568Z,88.87
2023-04-16T15:37:19.449Z,89.21
2023-04-16T15:39:46.209Z,89.03
2023-04-16T15:42:13.197Z,89.65
2023-04-16T15:44:40.448Z,89.86
2023-04-16T15:47:08.433Z,91.28
2023-04-16T15:49:35.484Z,90.70
2023-04-16T15:52:02.232Z,91.14
2023-04-16T15:54:30.173Z,91.48
2023-04-16T15:56:56.685Z,90.71
2023-04-16T15:59:23.187Z,90.16
2023-04-16T16:01:51.340Z,90.35
2023-04-16T16:04:18.153Z,90.13
2023-04-16T16:06:45.010Z,90.96
2023-04-16T16:09:11.890Z,91.22
2023-04-16T16:11:38.831Z,91.71
2023-04-16T16:14:05.421Z,91.64
2023-04-16T16:16:32.719Z,92.30
2023-04-16T16:18:59.357Z,92.05
2023-04-16T16:21:26.231Z,91.44
2023-04-16T16:23:53.289Z,91.01
2023-04-16T16:26:22.838Z,91.61
2023-04-16T16:28:49.368Z,91.78
2023-04-16T16:31:16.171Z,91.32
2023-04-16T16:33:42.730Z,92.22
2023-04-16T16:36:10.914Z,92.27
2023-04-16T16:38:39.868Z,92.30
2023-04-16T16:41:07.152Z,92.51
2023-04-16T16:43:35.075Z,93.01
2023-04-16T16:46:01.628Z,93.05
2023-04-16T16:48:28.829Z,93.37
2023-04-16T16:50:55.614Z,93.43
2023-04-16T16:53:22.183Z,93.63
2023-04-16T16:55:48.744Z,93.57
2023-04-16T16:58:15.442Z,93.74
2023-04-16T17:00:42.194Z,93.93
2023-04-16T17:03:09.279Z,94.02
2023-04-16T17:05:36.631Z,94.31
2023-04-16T17:08:03.293Z,94.47
2023-04-16T17:10:29.853Z,94.62
2023-04-16T17:12:56.529Z,94.66
2023-04-16T17:15:23.204Z,94.71
2023-04-16T17:17:49.966Z,94.87
2023-04-16T17:20:16.794Z,94.80
2023-04-16T17:22:43.477Z,94.84
2023-04-16T17:25:10.306Z,95.23
2023-04-16T17:27:36.910Z,95.04
2023-04-16T17:30:05.404Z,95.01
2023-04-16T17:32:32.843Z,94.74
2023-04-16T17:35:01.013Z,94.70
2023-04-16T17:37:27.626Z,94.78
2023-04-16T17:39:54.306Z,93.67
2023-04-16T17:42:20.995Z,93.49
2023-04-16T17:44:47.614Z,93.55
2023-04-16T17:47:14.265Z,94.00
2023-04-16T17:49:40.992Z,94.34
2023-04-16T17:52:07.540Z,93.92
2023-04-16T17:54:34.054Z,94.11
2023-04-16T17:57:00.622Z,94.09
2023-04-16T17:59:27.399Z,94.04
2023-04-16T18:01:54.626Z,94.04
2023-04-16T18:04:21.526Z,93.82
2023-04-16T18:06:48.381Z,93.73
2023-04-16T18:09:15.463Z,93.51
2023-04-16T18:11:42.038Z,93.38
2023-04-16T18:14:09.793Z,93.21
2023-04-16T18:16:36.821Z,93.69
2023-04-16T18:19:03.379Z,93.95
2023-04-16T18:21:30.339Z,94.36
2023-04-16T18:23:57.680Z,94.51
2023-04-16T18:26:25.232Z,94.63
2023-04-16T18:28:52.525Z,94.73
2023-04-16T18:31:21.076Z,94.79
2023-04-16T18:33:56.732Z,94.79
2023-04-16T18:36:26.606Z,94.75
2023-04-16T18:39:15.682Z,94.72
2023-04-16T18:41:40.863Z,94.96
2023-04-16T18:44:07.504Z,95.05
2023-04-16T18:46:34.009Z,95.19
2023-04-16T18:49:00.547Z,95.50
2023-04-16T18:51:27.231Z,95.32
2023-04-16T18:53:53.998Z,95.41
2023-04-16T18:56:20.791Z,95.30
2023-04-16T18:58:47.831Z,95.31
2023-04-16T19:01:14.509Z,95.29
2023-04-16T19:03:41.154Z,95.03
2023-04-16T19:06:07.838Z,95.03
2023-04-16T19:08:34.493Z,95.08
2023-04-16T19:11:01.221Z,94.96
2023-04-16T19:13:27.866Z,95.06
2023-04-16T19:16:00.990Z,95.07
2023-04-16T19:18:27.752Z,94.73
2023-04-16T19:21:01.199Z,94.72
2023-04-16T19:23:28.850Z,94.80
2023-04-16T19:25:56.805Z,94.50
2023-04-16T19:28:25.601Z,94.47
2023-04-16T19:30:53.280Z,94.48
2023-04-16T19:33:20.313Z,94.17
2023-04-16T19:35:47.268Z,94.50
2023-04-16T19:38:14.007Z,94.85
2023-04-16T19:40:41.169Z,95.13
2023-04-16T19:43:07.918Z,95.24
2023-04-16T19:45:34.475Z,95.10
2023-04-16T19:48:01.115Z,95.25
2023-04-16T19:50:27.682Z,95.31
2023-04-16T19:52:54.240Z,95.54
2023-04-16T19:55:20.844Z,95.74
2023-04-16T19:57:48.118Z,95.79
2023-04-16T20:00:15.125Z,96.02
2023-04-16T20:02:41.903Z,95.94
2023-04-16T20:05:09.121Z,95.81
2023-04-16T20:07:35.700Z,95.80
2023-04-16T20:10:02.972Z,95.79
2023-04-16T20:12:29.553Z,96.00
2023-04-16T20:14:56.086Z,95.59
2023-04-16T20:17:22.654Z,95.65
2023-04-16T20:19:51.025Z,95.73
2023-04-16T20:22:18.575Z,95.97
2023-04-16T20:24:48.105Z,96.33
2023-04-16T20:27:15.370Z,96.30
2023-04-16T20:29:42.447Z,96.56
2023-04-16T20:32:09.249Z,96.27
2023-04-16T20:34:37.912Z,96.27
2023-04-16T20:37:04.860Z,96.65
2023-04-16T20:39:34.083Z,96.49
2023-04-16T20:42:04.113Z,96.64
2023-04-16T20:44:40.248Z,96.43
2023-04-16T20:47:15.299Z,96.50
2023-04-16T20:49:46.895Z,96.81
2023-04-16T20:52:14.105Z,96.62
2023-04-16T20:54:40.934Z,96.42
2023-04-16T20:57:07.864Z,96.27
2023-04-16T20:59:36.113Z,96.38
2023-04-16T21:02:02.990Z,96.63
2023-04-16T21:04:29.915Z,96.91
2023-04-16T21:06:56.842Z,96.82
2023-04-16T21:09:23.626Z,96.79
2023-04-16T21:11:50.660Z,96.83
2023-04-16T21:14:17.338Z,96.92
2023-04-16T21:16:43.941Z,97.10
2023-04-16T21:19:11.219Z,96.83
2023-04-16T21:21:38.765Z,96.93
2023-04-16T21:24:05.916Z,96.89
2023-04-16T21:26:32.756Z,96.79
2023-04-16T21:28:59.339Z,96.71
2023-04-16T21:31:26.055Z,96.63
2023-04-16T21:33:52.831Z,96.90
2023-04-16T21:36:19.495Z,96.73
2023-04-16T21:38:46.051Z,96.82
2023-04-16T21:41:12.861Z,96.93
2023-04-16T21:43:39.418Z,96.69
2023-04-16T21:46:06.004Z,96.97
2023-04-16T21:48:32.605Z,97.07
2023-04-16T21:51:06.105Z,97.07
2023-04-16T21:53:33.129Z,97.31
2023-04-16T21:55:59.943Z,97.10
2023-04-16T21:58:26.553Z,97.34
2023-04-16T22:00:53.342Z,97.43
2023-04-16T22:03:26.051Z,97.39
2023-04-16T22:06:02.497Z,97.29
2023-04-16T22:08:29.509Z,97.41
2023-04-16T22:10:58.075Z,97.49
2023-04-16T22:13:26.144Z,97.48
2023-04-16T22:15:53.485Z,97.27
2023-04-16T22:18:20.509Z,97.26
2023-04-16T22:20:47.233Z,97.20
2023-04-16T22:23:14.065Z,97.16
2023-04-16T22:25:40.790Z,96.99
2023-04-16T22:28:07.303Z,96.75
2023-04-16T22:30:33.849Z,96.73
2023-04-16T22:33:00.885Z,96.95
2023-04-16T22:35:27.685Z,96.61
2023-04-16T22:37:54.247Z,96.68
2023-04-16T22:40:22.095Z,96.92
2023-04-16T22:42:48.690Z,97.00
2023-04-16T22:45:15.339Z,97.08
2023-04-16T22:47:42.088Z,96.93
2023-04-16T22:50:10.683Z,96.83
2023-04-16T22:52:37.199Z,96.74
2023-04-16T22:55:03.986Z,96.80
2023-04-16T22:57:30.698Z,97.03
2023-04-16T22:59:57.527Z,97.04
2023-04-16T23:02:24.275Z,97.05
2023-04-16T23:04:51.108Z,96.73
2023-04-16T23:07:17.624Z,96.58
2023-04-16T23:09:44.162Z,96.63
2023-04-16T23:12:11.024Z,96.71
2023-04-16T23:14:37.554Z,96.57
2023-04-16T23:17:04.314Z,96.53
2023-04-16T23:19:31.688Z,96.45
2023-04-16T23:21:58.605Z,96.16
2023-04-16T23:24:25.186Z,96.04
2023-04-16T23:26:52.444Z,96.44
2023-04-16T23:29:20.520Z,95.86
2023-04-16T23:31:47.672Z,95.70
2023-04-16T23:34:14.524Z,95.45
2023-04-16T23:36:41.316Z,95.56
2023-04-16T23:39:07.894Z,95.67
2023-04-16T23:41:34.676Z,95.71
2023-04-16T23:44:01.368Z,95.96
2023-04-16T23:46:27.999Z,95.78
2023-04-16T23:48:55.291Z,95.95
2023-04-16T23:51:22.296Z,95.72
2023-04-16T23:53:48.892Z,95.75
2023-04-16T23:56:16.201Z,95.49
2023-04-16T23:58:42.824Z,95.55
